Time;durP1;ratioP1;P1;durP2;ratioP2;P2;SDS_P1;SDS_P2;PMS_P1;PMS_P2;Temp;Humidity;BMP_temperature;BMP_pressure;BME280_temperature;BME280_humidity;BME280_pressure;Samples;Min_cycle;Max_cycle;Signal;HPM_P1;HPM_P2
2022/01/04 00:00:31;;;;;;;23.97;14.50;;;10.00;99.90;;;;;;5049072;28;20458;-74
2022/01/04 00:02:58;;;;;;;19.97;15.20;;;9.80;99.90;;;;;;5049241;28;20461;-74
2022/01/04 00:05:25;;;;;;;21.13;13.93;;;9.80;99.90;;;;;;5048603;28;20838;-74
2022/01/04 00:07:52;;;;;;;20.60;14.70;;;9.60;99.90;;;;;;5048897;28;20445;-74
2022/01/04 00:10:22;;;;;;;19.70;15.47;;;9.50;99.90;;;;;;5049317;28;20500;-74
2022/01/04 00:15:34;;;;;;;21.10;13.83;;;9.30;99.90;;;;;;5048656;28;20453;-74
2022/01/04 00:18:01;;;;;;;22.00;16.00;;;9.30;99.90;;;;;;5049174;28;20498;-75
2022/01/04 00:20:28;;;;;;;20.53;14.10;;;9.30;99.90;;;;;;5049123;28;20453;-74
2022/01/04 00:22:55;;;;;;;20.40;14.00;;;9.30;99.90;;;;;;5049152;28;20457;-73
2022/01/04 00:25:24;;;;;;;19.87;14.03;;;9.50;99.90;;;;;;5048892;28;20996;-74
2022/01/04 00:27:51;;;;;;;20.53;15.33;;;9.20;99.90;;;;;;5049145;28;20483;-74
2022/01/04 00:30:18;;;;;;;20.30;14.27;;;9.30;99.90;;;;;;5048854;28;20489;-73
2022/01/04 00:32:45;;;;;;;24.03;15.07;;;9.30;99.90;;;;;;5048908;28;20461;-74
2022/01/04 00:35:13;;;;;;;23.77;13.97;;;9.30;99.90;;;;;;5048667;28;20481;-73
2022/01/04 00:37:40;;;;;;;19.40;14.87;;;9.40;99.90;;;;;;5049200;28;20454;-73
2022/01/04 00:40:08;;;;;;;24.37;16.30;;;9.50;99.90;;;;;;5048990;28;20458;-73
2022/01/04 00:42:36;;;;;;;26.03;17.40;;;9.40;99.90;;;;;;5048929;28;20458;-73
2022/01/04 00:45:04;;;;;;;27.10;16.63;;;9.30;99.90;;;;;;5048378;28;21039;-74
2022/01/04 00:47:43;;;;;;;23.37;16.83;;;9.40;99.90;;;;;;5049037;28;20567;-74
2022/01/04 00:50:10;;;;;;;27.10;17.83;;;9.50;99.90;;;;;;5052907;28;20464;-73
2022/01/04 00:52:37;;;;;;;23.13;16.17;;;9.60;99.90;;;;;;5052701;28;21076;-74
2022/01/04 00:55:05;;;;;;;25.50;17.87;;;9.50;99.90;;;;;;5052497;28;20646;-73
2022/01/04 00:57:32;;;;;;;27.63;17.77;;;9.40;99.90;;;;;;5052751;28;20511;-74
2022/01/04 01:00:00;;;;;;;30.63;18.50;;;9.40;99.90;;;;;;5052276;28;20470;-74
2022/01/04 01:02:27;;;;;;;27.70;18.87;;;9.40;99.90;;;;;;5052463;28;20461;-74
2022/01/04 01:04:54;;;;;;;27.00;19.00;;;9.30;99.90;;;;;;5052037;28;20499;-73
2022/01/04 01:07:22;;;;;;;25.37;17.53;;;9.20;99.90;;;;;;5052581;28;20524;-74
2022/01/04 01:10:02;;;;;;;23.23;16.90;;;9.10;99.90;;;;;;5052563;28;20452;-74
2022/01/04 01:12:29;;;;;;;28.10;17.50;;;9.10;99.90;;;;;;5052268;28;20440;-75
2022/01/04 01:14:56;;;;;;;27.33;18.17;;;9.00;99.90;;;;;;5052085;28;20448;-75
2022/01/04 01:17:25;;;;;;;24.20;17.90;;;8.80;99.90;;;;;;5052210;28;20503;-74
2022/01/04 01:19:52;;;;;;;25.10;16.50;;;8.90;99.90;;;;;;5052515;28;20448;-73
2022/01/04 01:22:19;;;;;;;20.20;14.93;;;8.90;99.90;;;;;;5052071;28;20446;-73
2022/01/04 01:24:46;;;;;;;22.03;16.07;;;8.90;99.90;;;;;;5051570;28;20939;-73
2022/01/04 01:27:13;;;;;;;24.40;16.17;;;8.90;99.90;;;;;;5052198;28;20453;-74
2022/01/04 01:29:40;;;;;;;28.43;18.47;;;8.90;99.90;;;;;;5051810;28;20499;-74
2022/01/04 01:32:08;;;;;;;27.00;18.50;;;8.90;99.90;;;;;;5051687;28;20495;-73
2022/01/04 01:34:37;;;;;;;22.00;17.50;;;9.00;99.90;;;;;;5052122;28;20514;-74
2022/01/04 01:37:04;;;;;;;31.67;21.90;;;9.00;99.90;;;;;;5051853;28;20474;-73
2022/01/04 01:39:31;;;;;;;26.97;19.23;;;9.00;99.90;;;;;;5051872;28;20457;-73
2022/01/04 01:41:58;;;;;;;34.17;20.97;;;8.60;99.90;;;;;;5051589;28;20446;-75
2022/01/04 01:44:26;;;;;;;26.93;19.50;;;8.60;99.90;;;;;;5051716;28;20514;-73
2022/01/04 01:46:53;;;;;;;33.80;21.50;;;8.70;99.90;;;;;;5051610;28;20445;-74
2022/01/04 01:49:20;;;;;;;25.30;19.80;;;8.60;99.90;;;;;;5051813;28;20461;-74
2022/01/04 01:51:49;;;;;;;27.27;19.90;;;8.60;99.90;;;;;;5051375;28;20493;-73
2022/01/04 01:54:16;;;;;;;28.17;19.70;;;8.60;99.90;;;;;;5051671;28;20450;-73
2022/01/04 01:56:43;;;;;;;32.60;20.20;;;8.80;99.90;;;;;;5051429;28;20457;-73
2022/01/04 01:59:10;;;;;;;28.00;19.30;;;8.80;99.90;;;;;;5051141;28;20477;-73
2022/01/04 02:01:37;;;;;;;29.30;20.20;;;8.70;99.90;;;;;;5051757;28;20453;-74
2022/01/04 02:04:05;;;;;;;29.20;19.83;;;8.70;99.90;;;;;;5051494;28;20460;-74
2022/01/04 02:06:32;;;;;;;29.67;19.17;;;8.70;99.90;;;;;;5050664;28;20623;-73
2022/01/04 02:09:02;;;;;;;26.93;18.80;;;8.70;99.90;;;;;;5050885;28;20993;-74
2022/01/04 02:11:30;;;;;;;31.53;18.60;;;8.70;99.90;;;;;;5051323;28;20496;-73
2022/01/04 02:13:57;;;;;;;26.30;17.33;;;8.70;99.90;;;;;;5051271;28;20503;-73
2022/01/04 02:16:25;;;;;;;23.47;15.27;;;8.70;99.90;;;;;;5051138;28;20456;-75
2022/01/04 02:18:53;;;;;;;22.27;17.47;;;8.60;99.90;;;;;;5050802;28;20494;-74
2022/01/04 02:21:21;;;;;;;23.97;14.63;;;8.50;99.90;;;;;;5050947;28;20459;-74
2022/01/04 02:23:48;;;;;;;20.47;15.07;;;8.30;99.90;;;;;;5050901;28;20465;-74
2022/01/04 02:26:15;;;;;;;19.40;14.50;;;8.20;99.90;;;;;;5051106;28;20464;-73
2022/01/04 02:28:43;;;;;;;20.87;14.93;;;8.00;99.90;;;;;;5050844;28;20477;-73
2022/01/04 02:31:10;;;;;;;22.57;15.73;;;8.00;99.90;;;;;;5050652;28;20522;-73
2022/01/04 02:33:37;;;;;;;35.40;23.80;;;8.00;99.90;;;;;;5050751;28;20502;-72
2022/01/04 02:36:06;;;;;;;44.23;26.17;;;8.00;99.90;;;;;;5050419;28;20931;-74
2022/01/04 02:38:37;;;;;;;28.63;19.00;;;7.90;99.90;;;;;;5050600;28;20492;-73
2022/01/04 02:41:04;;;;;;;22.00;16.60;;;7.70;99.90;;;;;;5050730;28;20507;-73
2022/01/04 02:43:32;;;;;;;21.30;15.00;;;7.70;99.90;;;;;;5050438;28;20502;-74
2022/01/04 02:45:59;;;;;;;17.30;14.20;;;7.70;99.90;;;;;;5050048;28;20463;-73
2022/01/04 02:48:26;;;;;;;23.20;14.83;;;7.90;99.90;;;;;;5050223;28;20479;-74
2022/01/04 02:50:56;;;;;;;19.33;14.30;;;7.90;99.90;;;;;;5050258;28;20455;-74
2022/01/04 02:53:23;;;;;;;20.93;14.97;;;8.00;99.90;;;;;;5050767;28;20496;-73
2022/01/04 02:55:51;;;;;;;21.50;13.63;;;7.90;99.90;;;;;;5050496;28;20464;-72
2022/01/04 02:58:18;;;;;;;17.17;15.03;;;7.70;99.90;;;;;;5050151;28;20476;-74
2022/01/04 03:00:46;;;;;;;22.97;13.30;;;7.80;99.90;;;;;;5050081;28;20812;-73
2022/01/04 03:03:13;;;;;;;21.37;13.63;;;8.00;99.90;;;;;;5050374;28;20794;-73
2022/01/04 03:05:40;;;;;;;25.73;14.50;;;8.00;99.90;;;;;;5049616;28;20561;-74
2022/01/04 03:08:07;;;;;;;20.53;13.40;;;8.00;99.90;;;;;;5049955;28;20476;-73
2022/01/04 03:10:35;;;;;;;19.63;13.03;;;7.90;99.90;;;;;;5049499;28;20528;-74
2022/01/04 03:13:04;;;;;;;18.87;13.40;;;8.00;99.90;;;;;;5049732;28;20546;-73
2022/01/04 03:15:33;;;;;;;19.37;12.90;;;8.00;99.90;;;;;;5049687;28;20829;-74
2022/01/04 03:18:00;;;;;;;16.50;13.50;;;8.10;99.90;;;;;;5049863;28;20483;-73
2022/01/04 03:20:28;;;;;;;18.20;14.40;;;8.00;99.90;;;;;;5050074;28;20520;-73
2022/01/04 03:22:55;;;;;;;19.37;12.37;;;7.90;99.90;;;;;;5050067;28;20546;-74
2022/01/04 03:25:22;;;;;;;21.13;12.97;;;7.90;99.90;;;;;;5049926;28;20455;-74
2022/01/04 03:27:49;;;;;;;19.70;12.80;;;7.80;99.90;;;;;;5049312;28;20510;-73
2022/01/04 03:30:17;;;;;;;17.70;13.30;;;7.80;99.90;;;;;;5049667;28;21097;-73
2022/01/04 03:32:44;;;;;;;18.60;12.47;;;7.90;99.90;;;;;;5049822;28;20495;-73
2022/01/04 03:35:13;;;;;;;20.67;13.33;;;7.80;99.90;;;;;;5049701;28;20451;-73
2022/01/04 03:37:40;;;;;;;17.10;12.80;;;7.80;99.90;;;;;;5049779;28;20568;-73
2022/01/04 03:40:09;;;;;;;17.03;12.43;;;7.70;99.90;;;;;;5049319;28;20459;-73
2022/01/04 03:42:36;;;;;;;18.47;13.60;;;7.80;99.90;;;;;;5049532;28;20449;-73
2022/01/04 03:45:03;;;;;;;20.10;13.37;;;8.00;99.90;;;;;;5049693;28;20787;-73
2022/01/04 03:47:32;;;;;;;16.17;11.33;;;8.00;99.90;;;;;;5049434;28;20522;-73
2022/01/04 03:49:59;;;;;;;15.80;11.10;;;8.00;99.90;;;;;;5049461;28;20812;-73
2022/01/04 03:52:27;;;;;;;16.67;12.50;;;7.90;99.90;;;;;;5049418;28;20488;-73
2022/01/04 03:54:54;;;;;;;19.90;13.37;;;7.70;99.90;;;;;;5049126;28;20468;-73
2022/01/04 03:57:21;;;;;;;18.03;14.10;;;7.70;99.90;;;;;;5049142;28;20481;-73
2022/01/04 03:59:48;;;;;;;17.50;12.67;;;7.80;99.90;;;;;;5049362;28;20460;-73
2022/01/04 04:02:16;;;;;;;18.80;13.20;;;7.70;99.90;;;;;;5049393;28;20459;-74
2022/01/04 04:04:44;;;;;;;17.40;11.60;;;7.60;99.90;;;;;;5049218;28;20858;-73
2022/01/04 04:07:11;;;;;;;20.43;12.63;;;7.50;99.90;;;;;;5049236;28;20869;-74
2022/01/04 04:09:39;;;;;;;18.20;12.80;;;7.70;99.90;;;;;;5049038;28;20456;-72
2022/01/04 04:12:07;;;;;;;19.77;13.00;;;7.90;99.90;;;;;;5049176;28;20487;-74
2022/01/04 04:14:34;;;;;;;17.23;13.33;;;7.80;99.90;;;;;;5048831;28;20979;-74
2022/01/04 04:17:01;;;;;;;19.93;13.83;;;7.80;99.90;;;;;;5049090;28;20462;-74
2022/01/04 04:19:28;;;;;;;16.20;12.77;;;7.70;99.90;;;;;;5049021;28;20464;-74
2022/01/04 04:21:57;;;;;;;21.97;13.30;;;7.80;99.90;;;;;;5049401;28;20451;-74
2022/01/04 04:24:24;;;;;;;17.17;12.47;;;7.60;99.90;;;;;;5051596;28;20456;-73
2022/01/04 04:26:51;;;;;;;18.90;12.83;;;7.70;99.90;;;;;;5053028;28;20533;-74
2022/01/04 04:29:18;;;;;;;21.90;14.63;;;7.70;99.90;;;;;;5053209;28;20456;-73
2022/01/04 04:31:45;;;;;;;22.50;15.67;;;7.80;99.90;;;;;;5053355;28;20568;-74
2022/01/04 04:34:12;;;;;;;23.80;15.90;;;7.60;99.90;;;;;;5053185;28;20455;-73
2022/01/04 04:36:39;;;;;;;24.20;17.47;;;7.50;99.90;;;;;;5052689;28;20461;-73
2022/01/04 04:39:08;;;;;;;31.57;21.37;;;7.50;99.90;;;;;;5052790;28;20476;-73
2022/01/04 04:41:35;;;;;;;45.10;27.97;;;7.40;99.90;;;;;;5052638;28;20513;-73
2022/01/04 04:44:02;;;;;;;52.00;32.40;;;7.30;99.90;;;;;;5053106;28;20456;-73
2022/01/04 04:46:29;;;;;;;46.53;32.10;;;7.40;99.90;;;;;;5052347;28;20520;-73
2022/01/04 04:48:56;;;;;;;46.07;30.37;;;7.40;99.90;;;;;;5052545;28;20474;-73
2022/01/04 04:51:23;;;;;;;45.63;30.47;;;7.40;99.90;;;;;;5052357;28;20455;-74
2022/01/04 04:53:50;;;;;;;49.50;31.03;;;7.30;99.90;;;;;;5052917;28;20452;-74
2022/01/04 04:56:19;;;;;;;44.00;30.13;;;7.30;99.90;;;;;;5052510;28;20460;-73
2022/01/04 04:58:47;;;;;;;42.50;29.23;;;7.40;99.90;;;;;;5052684;28;20480;-73
2022/01/04 05:01:14;;;;;;;39.00;26.90;;;7.40;99.90;;;;;;5052681;28;20515;-74
2022/01/04 05:03:41;;;;;;;31.27;23.17;;;7.20;99.90;;;;;;5052209;28;20478;-73
2022/01/04 05:06:08;;;;;;;32.57;21.90;;;7.10;99.90;;;;;;5052083;28;20499;-73
2022/01/04 05:08:36;;;;;;;23.80;16.67;;;6.90;99.90;;;;;;5052206;28;20478;-73
2022/01/04 05:11:03;;;;;;;21.47;17.17;;;6.90;99.90;;;;;;5052330;28;20457;-73
2022/01/04 05:13:33;;;;;;;23.97;16.33;;;6.80;99.90;;;;;;5052673;28;20522;-72
2022/01/04 05:16:00;;;;;;;22.50;14.90;;;6.80;99.90;;;;;;5051833;28;20459;-73
2022/01/04 05:18:28;;;;;;;21.57;12.67;;;6.70;99.90;;;;;;5052231;28;20820;-74
2022/01/04 05:20:55;;;;;;;13.27;9.80;;;6.70;99.90;;;;;;5052396;28;20805;-73
2022/01/04 05:23:22;;;;;;;13.07;10.10;;;6.60;99.90;;;;;;5052049;28;20820;-74
2022/01/04 05:25:49;;;;;;;13.77;10.27;;;6.60;99.90;;;;;;5052250;28;20458;-73
2022/01/04 05:28:16;;;;;;;20.00;10.17;;;6.60;99.90;;;;;;5052034;28;20622;-73
2022/01/04 05:30:44;;;;;;;18.30;10.57;;;6.60;99.90;;;;;;5051930;28;20455;-72
2022/01/04 05:33:11;;;;;;;15.80;10.80;;;6.70;99.90;;;;;;5051605;28;21009;-74
2022/01/04 05:35:39;;;;;;;16.60;10.83;;;6.70;99.90;;;;;;5051260;28;20509;-74
2022/01/04 05:38:06;;;;;;;13.30;9.90;;;6.70;99.90;;;;;;5051987;28;20479;-76
2022/01/04 05:40:34;;;;;;;15.40;9.60;;;6.80;99.90;;;;;;5051971;28;20455;-76
2022/01/04 05:43:01;;;;;;;18.53;11.17;;;6.90;99.90;;;;;;5052167;28;20452;-75
2022/01/04 05:45:30;;;;;;;15.20;11.60;;;7.00;99.90;;;;;;5051796;28;20478;-76
2022/01/04 05:47:59;;;;;;;17.10;10.60;;;7.00;99.90;;;;;;5051393;28;20481;-75
2022/01/04 05:50:26;;;;;;;14.50;9.60;;;7.20;99.90;;;;;;5051353;28;20456;-75
2022/01/04 05:52:54;;;;;;;19.30;12.90;;;7.30;99.90;;;;;;5051380;28;20536;-77
2022/01/04 05:55:21;;;;;;;15.00;10.47;;;7.30;99.90;;;;;;5051362;28;20456;-75
2022/01/04 05:57:49;;;;;;;19.83;13.00;;;7.30;99.90;;;;;;5051303;28;20483;-76
2022/01/04 06:00:18;;;;;;;28.20;14.17;;;7.20;99.90;;;;;;5051526;28;20459;-75
2022/01/04 06:02:45;;;;;;;20.70;13.10;;;7.30;99.90;;;;;;5051629;28;20447;-76
2022/01/04 06:05:14;;;;;;;19.20;13.13;;;7.30;99.90;;;;;;5051329;28;20962;-75
2022/01/04 06:07:41;;;;;;;26.87;15.60;;;7.30;99.90;;;;;;5051553;28;20460;-72
2022/01/04 06:10:11;;;;;;;21.57;13.63;;;7.10;99.90;;;;;;5051353;28;20455;-73
2022/01/04 06:15:22;;;;;;;21.10;13.80;;;7.10;99.90;;;;;;5051336;28;20450;-73
2022/01/04 06:17:50;;;;;;;23.27;13.43;;;7.20;99.90;;;;;;5051120;28;20532;-70
2022/01/04 06:20:22;;;;;;;21.03;12.50;;;7.10;99.90;;;;;;5051060;28;20551;-74
2022/01/04 06:22:50;;;;;;;14.37;11.43;;;7.00;99.90;;;;;;5050740;28;20455;-75
2022/01/04 06:25:19;;;;;;;17.10;11.50;;;7.00;99.90;;;;;;5050293;28;20451;-75
2022/01/04 06:27:48;;;;;;;14.03;11.30;;;6.90;99.90;;;;;;5050797;28;20525;-76
2022/01/04 06:30:16;;;;;;;19.83;11.73;;;7.00;99.90;;;;;;5051186;28;20450;-75
2022/01/04 06:32:43;;;;;;;19.70;12.13;;;7.10;99.90;;;;;;5050685;28;20513;-75
2022/01/04 06:35:13;;;;;;;21.00;11.50;;;7.30;99.90;;;;;;5051006;28;20807;-77
2022/01/04 06:37:42;;;;;;;17.30;11.53;;;7.50;99.90;;;;;;5050649;28;20472;-78
2022/01/04 06:40:10;;;;;;;17.80;12.30;;;7.60;99.90;;;;;;5050670;28;20547;-77
2022/01/04 06:42:37;;;;;;;19.87;12.33;;;7.60;99.90;;;;;;5050308;28;20527;-77
2022/01/04 06:45:05;;;;;;;20.80;12.50;;;7.60;99.90;;;;;;5050476;28;20456;-75
2022/01/04 06:47:32;;;;;;;23.23;13.70;;;7.50;99.90;;;;;;5050083;28;20465;-75
2022/01/04 06:49:59;;;;;;;17.07;13.57;;;7.70;99.90;;;;;;5050357;28;20456;-76
2022/01/04 06:52:26;;;;;;;32.47;19.63;;;7.80;99.90;;;;;;5050104;28;20496;-75
2022/01/04 06:54:55;;;;;;;36.97;25.37;;;7.80;99.90;;;;;;5050366;28;20460;-75
2022/01/04 06:57:23;;;;;;;37.50;26.17;;;7.70;99.90;;;;;;5050266;28;20483;-74
2022/01/04 06:59:50;;;;;;;37.73;26.30;;;7.60;99.90;;;;;;5050256;28;20468;-73
2022/01/04 07:02:17;;;;;;;38.97;28.37;;;7.60;99.90;;;;;;5049770;28;20453;-76
2022/01/04 07:04:44;;;;;;;40.17;26.03;;;7.60;99.90;;;;;;5049983;28;20456;-75
2022/01/04 07:07:13;;;;;;;36.97;27.73;;;7.20;99.90;;;;;;5050095;28;20472;-73
2022/01/04 07:09:41;;;;;;;48.80;32.83;;;7.40;99.90;;;;;;5050091;28;20453;-73
2022/01/04 07:12:11;;;;;;;51.13;33.03;;;7.10;99.90;;;;;;5049951;28;20537;-74
2022/01/04 07:14:38;;;;;;;52.10;34.03;;;6.80;99.90;;;;;;5050090;28;20455;-76
2022/01/04 07:17:05;;;;;;;47.20;34.50;;;6.80;99.90;;;;;;5049829;28;20463;-74
2022/01/04 07:19:32;;;;;;;45.80;32.87;;;6.60;99.90;;;;;;5050087;28;20455;-77
2022/01/04 07:22:00;;;;;;;46.30;34.30;;;6.80;99.90;;;;;;5049730;28;20514;-74
2022/01/04 07:24:27;;;;;;;51.10;33.73;;;6.90;99.90;;;;;;5049685;28;20473;-72
2022/01/04 07:26:54;;;;;;;53.60;36.00;;;7.20;99.90;;;;;;5049258;28;20455;-73
2022/01/04 07:29:23;;;;;;;47.67;33.50;;;7.50;99.90;;;;;;5049525;28;20544;-77
2022/01/04 07:31:50;;;;;;;45.60;34.60;;;7.50;99.90;;;;;;5049433;28;20464;-74
2022/01/04 07:34:17;;;;;;;47.13;33.57;;;7.80;99.90;;;;;;5049440;28;20485;-73
2022/01/04 07:36:44;;;;;;;48.00;33.07;;;8.10;99.90;;;;;;5049888;28;20447;-73
2022/01/04 07:39:11;;;;;;;50.87;34.93;;;8.40;99.90;;;;;;5049636;28;20461;-74
2022/01/04 07:41:38;;;;;;;48.13;36.60;;;8.30;99.90;;;;;;5049074;28;20460;-74
2022/01/04 07:44:05;;;;;;;59.57;41.63;;;8.00;99.90;;;;;;5049295;28;20935;-73
2022/01/04 07:46:34;;;;;;;58.40;39.03;;;7.90;99.90;;;;;;5049456;28;20508;-76
2022/01/04 07:49:01;;;;;;;53.67;37.43;;;8.10;99.90;;;;;;5049515;28;20480;-75
2022/01/04 07:51:28;;;;;;;51.50;38.13;;;8.00;99.90;;;;;;5049351;28;20503;-76
2022/01/04 07:53:55;;;;;;;45.80;36.23;;;8.10;99.90;;;;;;5049232;28;20576;-73
2022/01/04 07:56:24;;;;;;;47.83;35.97;;;8.50;99.90;;;;;;5049395;28;20542;-78
2022/01/04 07:58:52;;;;;;;49.70;34.07;;;8.70;99.90;;;;;;5049421;28;20483;-79
2022/01/04 08:01:20;;;;;;;46.93;34.63;;;8.70;99.90;;;;;;5049277;28;20462;-76
2022/01/04 08:03:50;;;;;;;42.50;30.80;;;8.70;99.90;;;;;;5048103;28;20460;-75
2022/01/04 08:06:17;;;;;;;42.27;28.80;;;8.70;99.90;;;;;;5048616;28;20913;-75
2022/01/04 08:08:46;;;;;;;42.03;29.40;;;8.80;99.90;;;;;;5049028;28;20472;-77
2022/01/04 08:11:13;;;;;;;40.80;29.30;;;8.90;99.90;;;;;;5049622;28;20488;-78
2022/01/04 08:13:40;;;;;;;45.17;32.33;;;8.90;99.90;;;;;;5049186;28;20493;-74
2022/01/04 08:16:09;;;;;;;41.97;32.07;;;8.90;99.90;;;;;;5048902;28;20708;-73
2022/01/04 08:18:36;;;;;;;36.63;29.20;;;9.20;99.90;;;;;;5049393;28;20996;-77
2022/01/04 08:21:05;;;;;;;39.33;30.37;;;9.50;99.90;;;;;;5048960;28;20450;-77
2022/01/04 08:23:32;;;;;;;36.50;30.17;;;9.80;99.90;;;;;;5049304;28;20818;-75
2022/01/04 08:25:59;;;;;;;41.53;31.20;;;9.90;99.90;;;;;;5049039;28;20462;-78
2022/01/04 08:28:27;;;;;;;39.60;31.53;;;10.10;99.90;;;;;;5049193;28;20986;-76
2022/01/04 08:30:54;;;;;;;45.03;33.20;;;10.20;99.90;;;;;;5049172;28;20549;-74
2022/01/04 08:33:21;;;;;;;41.77;32.47;;;9.90;99.90;;;;;;5049201;28;20493;-77
2022/01/04 08:35:48;;;;;;;45.17;32.30;;;9.70;99.90;;;;;;5049294;28;20857;-80
2022/01/04 08:38:17;;;;;;;49.57;33.90;;;9.80;99.90;;;;;;5048911;28;20551;-78
2022/01/04 08:40:44;;;;;;;42.67;32.03;;;9.80;99.90;;;;;;5048991;28;20462;-71
2022/01/04 08:43:11;;;;;;;45.47;32.70;;;10.10;99.90;;;;;;5049236;28;20458;-75
2022/01/04 08:45:38;;;;;;;48.10;32.50;;;10.30;99.90;;;;;;5048779;28;20454;-75
2022/01/04 08:48:06;;;;;;;45.70;32.17;;;10.50;99.90;;;;;;5047653;28;20535;-76
2022/01/04 08:50:33;;;;;;;39.33;30.57;;;10.50;99.90;;;;;;5048940;28;21245;-76
2022/01/04 08:53:01;;;;;;;45.00;31.67;;;10.60;99.90;;;;;;5048716;28;20819;-75
2022/01/04 08:55:30;;;;;;;42.83;31.43;;;10.70;99.90;;;;;;5048516;28;20971;-75
2022/01/04 08:57:57;;;;;;;48.10;33.17;;;10.90;99.90;;;;;;5048682;28;20466;-76
2022/01/04 09:00:24;;;;;;;39.20;30.87;;;10.90;99.90;;;;;;5048427;28;20461;-76
2022/01/04 09:02:51;;;;;;;43.90;28.57;;;10.90;99.90;;;;;;5048913;28;20457;-77
2022/01/04 09:05:18;;;;;;;39.73;30.07;;;11.00;99.90;;;;;;5048433;28;20489;-75
2022/01/04 09:07:45;;;;;;;34.73;28.47;;;11.10;99.90;;;;;;5048704;28;20816;-76
2022/01/04 09:10:12;;;;;;;41.27;30.60;;;11.10;99.90;;;;;;5050901;28;20954;-75
2022/01/04 09:12:53;;;;;;;36.73;29.27;;;11.10;99.90;;;;;;5052538;28;20461;-76
2022/01/04 09:15:56;;;;;;;51.33;31.20;;;11.00;99.90;;;;;;5052301;28;20499;-75
2022/01/04 09:21:08;;;;;;;41.20;30.73;;;10.80;99.90;;;;;;5052267;28;20453;-75
2022/01/04 09:23:35;;;;;;;44.00;36.67;;;10.90;99.90;;;;;;5051894;28;20446;-72
2022/01/04 09:26:02;;;;;;;41.73;33.73;;;11.20;99.90;;;;;;5051643;28;20551;-76
2022/01/04 09:28:31;;;;;;;44.20;32.30;;;11.30;99.90;;;;;;5052194;28;20553;-77
2022/01/04 09:30:59;;;;;;;40.80;32.27;;;11.40;99.90;;;;;;5051976;28;20457;-75
2022/01/04 09:33:26;;;;;;;45.87;30.90;;;11.50;99.90;;;;;;5052232;28;20478;-75
2022/01/04 09:35:53;;;;;;;45.60;35.63;;;11.50;99.90;;;;;;5052201;28;20457;-76
2022/01/04 09:38:21;;;;;;;42.23;35.17;;;11.60;99.90;;;;;;5052120;28;20485;-79
2022/01/04 09:40:50;;;;;;;43.57;33.10;;;11.80;99.90;;;;;;5052225;28;20469;-78
2022/01/04 09:43:20;;;;;;;37.80;31.57;;;12.00;99.90;;;;;;5052397;28;20450;-80
2022/01/04 09:45:48;;;;;;;34.83;30.13;;;12.20;99.90;;;;;;5052334;28;20449;-80
2022/01/04 09:48:15;;;;;;;36.60;29.87;;;12.30;99.90;;;;;;5052951;28;20974;-77
2022/01/04 09:50:44;;;;;;;44.10;33.20;;;12.50;99.90;;;;;;5052678;28;20454;-80
2022/01/04 09:53:19;;;;;;;35.53;28.97;;;12.80;99.90;;;;;;5052151;28;20488;-79
2022/01/04 09:55:48;;;;;;;39.17;30.03;;;12.90;99.90;;;;;;5052370;28;20466;-78
2022/01/04 09:58:15;;;;;;;37.23;28.20;;;13.20;99.90;;;;;;5052127;28;20539;-77
2022/01/04 10:00:42;;;;;;;36.10;31.03;;;13.40;99.90;;;;;;5051836;28;20456;-80
2022/01/04 10:03:13;;;;;;;37.67;30.47;;;13.60;99.90;;;;;;5052242;28;20942;-80
2022/01/04 10:05:41;;;;;;;41.03;32.80;;;13.80;99.90;;;;;;5051453;28;20855;-79
2022/01/04 10:08:09;;;;;;;43.87;32.40;;;14.20;99.90;;;;;;5051647;28;20543;-79
2022/01/04 10:10:38;;;;;;;47.40;30.63;;;14.50;99.20;;;;;;5051921;28;20462;-77
2022/01/04 10:13:07;;;;;;;38.53;31.70;;;14.70;98.30;;;;;;5051384;28;20469;-80
2022/01/04 10:15:38;;;;;;;42.33;30.50;;;14.70;98.50;;;;;;5051393;28;20457;-78
2022/01/04 10:18:23;;;;;;;37.90;29.70;;;15.00;97.80;;;;;;5051640;28;20469;-79
2022/01/04 10:21:10;;;;;;;40.30;29.90;;;15.20;95.80;;;;;;5050917;28;20824;-79
2022/01/04 10:23:49;;;;;;;46.43;29.83;;;15.40;95.20;;;;;;5051467;28;20461;-78
2022/01/04 10:26:17;;;;;;;36.83;26.70;;;15.50;95.00;;;;;;5051278;28;20457;-80
2022/01/04 10:28:46;;;;;;;38.27;28.37;;;15.70;94.10;;;;;;5050694;28;20478;-79
2022/01/04 10:31:16;;;;;;;35.50;26.70;;;15.80;93.50;;;;;;5051075;28;20463;-78
2022/01/04 10:33:45;;;;;;;31.20;25.60;;;15.70;93.90;;;;;;5050893;28;20588;-80
2022/01/04 10:36:13;;;;;;;35.50;26.50;;;16.00;93.20;;;;;;5050729;28;20971;-78
2022/01/04 10:38:43;;;;;;;33.00;25.13;;;16.00;93.40;;;;;;5051370;28;20485;-79
2022/01/04 10:41:12;;;;;;;31.90;23.80;;;16.40;92.70;;;;;;5051377;28;20507;-79
2022/01/04 10:43:43;;;;;;;28.27;22.50;;;16.60;91.00;;;;;;5051086;28;20450;-81
2022/01/04 10:46:11;;;;;;;28.17;21.80;;;16.70;91.40;;;;;;5050787;28;20957;-80
2022/01/04 10:48:41;;;;;;;24.67;18.80;;;16.80;91.40;;;;;;5050802;28;20477;-78
2022/01/04 10:51:11;;;;;;;19.07;16.60;;;17.20;89.00;;;;;;5050606;28;20513;-79
2022/01/04 10:53:40;;;;;;;24.07;17.77;;;17.40;90.20;;;;;;5050620;28;20515;-80
2022/01/04 10:56:10;;;;;;;31.80;22.30;;;17.70;87.50;;;;;;5050673;28;20817;-77
2022/01/04 10:58:38;;;;;;;24.50;19.40;;;17.90;85.30;;;;;;5050423;28;20478;-79
2022/01/04 11:01:09;;;;;;;24.93;17.50;;;18.10;85.60;;;;;;5050652;28;20458;-78
2022/01/04 11:03:37;;;;;;;23.93;18.10;;;18.20;83.30;;;;;;5050540;28;20450;-79
2022/01/04 11:06:10;;;;;;;19.07;14.83;;;18.30;83.00;;;;;;5049686;28;20493;-79
2022/01/04 11:08:38;;;;;;;25.77;17.30;;;18.40;81.90;;;;;;5049947;28;20469;-78
2022/01/04 11:11:06;;;;;;;25.73;15.40;;;18.50;79.80;;;;;;5050076;28;20507;-80
2022/01/04 11:13:33;;;;;;;21.33;17.63;;;18.50;80.60;;;;;;5050099;28;20543;-80
2022/01/04 11:16:02;;;;;;;23.43;18.83;;;18.60;77.60;;;;;;5049633;28;20507;-79
2022/01/04 11:18:30;;;;;;;21.83;16.80;;;18.50;77.90;;;;;;5050180;28;20958;-81
2022/01/04 11:20:57;;;;;;;18.90;16.57;;;18.30;79.50;;;;;;5049840;28;20469;-78
2022/01/04 11:23:28;;;;;;;21.17;16.57;;;18.40;77.70;;;;;;5050347;28;20458;-77
2022/01/04 11:25:56;;;;;;;26.23;18.00;;;18.40;78.10;;;;;;5050315;28;20528;-80
2022/01/04 11:28:23;;;;;;;23.33;18.70;;;18.50;78.20;;;;;;5049498;28;20869;-78
2022/01/04 11:31:30;;;;;;;27.10;18.20;;;18.60;77.90;;;;;;5050393;28;20775;-78
2022/01/04 11:34:03;;;;;;;22.67;17.87;;;18.70;77.10;;;;;;5049705;28;20485;-77
2022/01/04 11:36:34;;;;;;;20.67;17.00;;;18.90;76.00;;;;;;5049810;28;20464;-79
2022/01/04 11:39:03;;;;;;;19.43;17.23;;;18.80;76.40;;;;;;5049853;28;20548;-79
2022/01/04 11:41:42;;;;;;;23.40;18.90;;;18.50;76.80;;;;;;5050203;28;20511;-79
2022/01/04 11:44:19;;;;;;;22.90;16.93;;;18.60;75.90;;;;;;5049560;28;20580;-80
2022/01/04 11:47:01;;;;;;;26.33;18.97;;;18.40;76.20;;;;;;5049695;28;20458;-79
2022/01/04 11:49:28;;;;;;;22.80;18.37;;;18.30;76.70;;;;;;5049986;28;20760;-78
2022/01/04 11:51:55;;;;;;;21.47;18.70;;;18.10;77.70;;;;;;5048517;28;20454;-78
2022/01/04 11:54:26;;;;;;;19.90;16.53;;;18.10;77.90;;;;;;5049731;28;20493;-79
2022/01/04 11:56:55;;;;;;;25.10;17.33;;;18.30;77.50;;;;;;5049939;28;20499;-78
2022/01/04 11:59:25;;;;;;;20.23;16.60;;;18.30;77.70;;;;;;5049728;28;20461;-78
2022/01/04 12:01:53;;;;;;;20.70;16.23;;;18.50;77.00;;;;;;5049846;28;20453;-78
2022/01/04 12:04:52;;;;;;;24.10;17.50;;;18.40;77.10;;;;;;5049654;28;20776;-77
2022/01/04 12:07:47;;;;;;;21.40;15.60;;;18.50;76.80;;;;;;5049572;28;20533;-78
2022/01/04 12:10:46;;;;;;;19.13;16.60;;;18.60;76.20;;;;;;5025034;28;20458;-79
2022/01/04 12:13:16;;;;;;;18.37;15.03;;;18.50;77.10;;;;;;5006788;28;20458;-77
2022/01/04 12:15:52;;;;;;;19.80;15.90;;;18.70;76.70;;;;;;5040983;28;20568;-78
2022/01/04 12:19:01;;;;;;;17.87;14.03;;;18.90;75.90;;;;;;5049544;28;20472;-79
2022/01/04 12:21:49;;;;;;;20.40;14.90;;;18.90;76.20;;;;;;5049613;28;20454;-78
2022/01/04 12:24:22;;;;;;;17.97;13.57;;;19.00;73.50;;;;;;5049121;28;20508;-78
2022/01/04 12:27:08;;;;;;;18.40;14.73;;;18.90;74.30;;;;;;5049780;28;20507;-79
2022/01/04 12:29:35;;;;;;;21.40;14.17;;;18.80;74.30;;;;;;5049579;28;20532;-78
2022/01/04 12:32:08;;;;;;;20.67;14.27;;;18.80;74.40;;;;;;5049664;28;20454;-79
2022/01/04 12:34:38;;;;;;;16.30;13.30;;;18.50;74.40;;;;;;5049376;28;20489;-77
2022/01/04 12:37:08;;;;;;;16.70;13.80;;;18.60;74.70;;;;;;5050126;28;20438;-78
2022/01/04 12:39:40;;;;;;;22.80;18.07;;;18.40;74.20;;;;;;5049451;28;20966;-81
2022/01/04 12:42:10;;;;;;;20.70;16.40;;;18.40;74.60;;;;;;5048802;28;20519;-79
2022/01/04 12:44:38;;;;;;;17.00;12.50;;;18.30;74.70;;;;;;5052063;28;20545;-78
2022/01/04 12:47:07;;;;;;;17.57;13.70;;;18.10;75.60;;;;;;5052819;28;20464;-77
2022/01/04 12:49:34;;;;;;;18.97;13.43;;;18.10;74.70;;;;;;5052864;28;20465;-78